sensor_id;sensor_type;location;lat;lon;timestamp;pressure;altitude;pressure_sealevel;temperature;humidity
61478;BME280;47345;52.334;10.392;2023-11-21T00:01:28;100193.34;;;8.66;89.77
61478;BME280;47345;52.334;10.392;2023-11-21T00:04:08;100195.77;;;8.67;90.09
61478;BME280;47345;52.334;10.392;2023-11-21T00:06:45;100194.40;;;8.67;90.10
61478;BME280;47345;52.334;10.392;2023-11-21T00:09:27;100191.88;;;8.67;90.12
61478;BME280;47345;52.334;10.392;2023-11-21T00:12:10;100196.91;;;8.66;90.17
61478;BME280;47345;52.334;10.392;2023-11-21T00:14:53;100199.94;;;8.65;90.09
61478;BME280;47345;52.334;10.392;2023-11-21T00:17:30;100198.53;;;8.64;90.20
61478;BME280;47345;52.334;10.392;2023-11-21T00:20:16;100202.86;;;8.65;90.26
61478;BME280;47345;52.334;10.392;2023-11-21T00:22:55;100197.99;;;8.64;90.32
61478;BME280;47345;52.334;10.392;2023-11-21T00:25:28;100201.10;;;8.64;90.45
61478;BME280;47345;52.334;10.392;2023-11-21T00:28:06;100202.10;;;8.63;90.36
61478;BME280;47345;52.334;10.392;2023-11-21T00:30:50;100203.45;;;8.63;90.42
61478;BME280;47345;52.334;10.392;2023-11-21T00:33:27;100203.98;;;8.61;90.36
61478;BME280;47345;52.334;10.392;2023-11-21T00:39:03;100211.38;;;8.61;90.45
61478;BME280;47345;52.334;10.392;2023-11-21T00:41:42;100217.30;;;8.60;90.55
61478;BME280;47345;52.334;10.392;2023-11-21T00:44:22;100217.91;;;8.60;90.54
61478;BME280;47345;52.334;10.392;2023-11-21T00:47:05;100218.88;;;8.59;90.70
61478;BME280;47345;52.334;10.392;2023-11-21T00:49:48;100218.16;;;8.59;90.79
61478;BME280;47345;52.334;10.392;2023-11-21T00:52:25;100216.73;;;8.58;90.97
61478;BME280;47345;52.334;10.392;2023-11-21T00:55:08;100218.28;;;8.58;90.96
61478;BME280;47345;52.334;10.392;2023-11-21T00:57:51;100219.88;;;8.57;90.99
61478;BME280;47345;52.334;10.392;2023-11-21T01:00:42;100219.25;;;8.58;91.30
61478;BME280;47345;52.334;10.392;2023-11-21T01:03:23;100221.27;;;8.59;91.39
61478;BME280;47345;52.334;10.392;2023-11-21T01:06:02;100220.48;;;8.60;91.33
61478;BME280;47345;52.334;10.392;2023-11-21T01:08:49;100222.73;;;8.59;91.07
61478;BME280;47345;52.334;10.392;2023-11-21T01:11:30;100223.27;;;8.58;91.33
61478;BME280;47345;52.334;10.392;2023-11-21T01:14:17;100229.83;;;8.59;91.51
61478;BME280;47345;52.334;10.392;2023-11-21T01:16:54;100232.05;;;8.60;91.69
61478;BME280;47345;52.334;10.392;2023-11-21T01:19:33;100232.13;;;8.61;91.48
61478;BME280;47345;52.334;10.392;2023-11-21T01:22:18;100236.88;;;8.62;91.49
61478;BME280;47345;52.334;10.392;2023-11-21T01:25:03;100239.27;;;8.63;91.61
61478;BME280;47345;52.334;10.392;2023-11-21T01:27:39;100234.65;;;8.63;91.60
61478;BME280;47345;52.334;10.392;2023-11-21T01:30:27;100240.06;;;8.65;91.71
61478;BME280;47345;52.334;10.392;2023-11-21T01:33:12;100242.00;;;8.65;91.55
61478;BME280;47345;52.334;10.392;2023-11-21T01:35:51;100238.80;;;8.65;91.37
61478;BME280;47345;52.334;10.392;2023-11-21T01:38:28;100233.77;;;8.64;91.47
61478;BME280;47345;52.334;10.392;2023-11-21T01:41:12;100236.00;;;8.64;91.49
61478;BME280;47345;52.334;10.392;2023-11-21T01:44:02;100238.05;;;8.64;91.44
61478;BME280;47345;52.334;10.392;2023-11-21T01:46:43;100238.23;;;8.63;91.37
61478;BME280;47345;52.334;10.392;2023-11-21T01:49:26;100242.24;;;8.61;91.31
61478;BME280;47345;52.334;10.392;2023-11-21T01:52:05;100251.00;;;8.61;91.48
61478;BME280;47345;52.334;10.392;2023-11-21T01:54:51;100251.52;;;8.60;91.60
61478;BME280;47345;52.334;10.392;2023-11-21T01:57:37;100254.61;;;8.61;91.71
61478;BME280;47345;52.334;10.392;2023-11-21T02:00:25;100259.02;;;8.62;91.68
61478;BME280;47345;52.334;10.392;2023-11-21T02:03:24;100264.73;;;8.64;91.80
61478;BME280;47345;52.334;10.392;2023-11-21T02:06:03;100264.94;;;8.65;91.67
61478;BME280;47345;52.334;10.392;2023-11-21T02:08:46;100267.45;;;8.65;91.63
61478;BME280;47345;52.334;10.392;2023-11-21T02:11:27;100267.71;;;8.66;91.77
61478;BME280;47345;52.334;10.392;2023-11-21T02:14:08;100265.05;;;8.69;91.79
61478;BME280;47345;52.334;10.392;2023-11-21T02:16:48;100268.31;;;8.70;91.62
61478;BME280;47345;52.334;10.392;2023-11-21T02:19:28;100265.88;;;8.69;91.34
61478;BME280;47345;52.334;10.392;2023-11-21T02:22:08;100265.50;;;8.69;91.39
61478;BME280;47345;52.334;10.392;2023-11-21T02:25:08;100268.65;;;8.69;91.49
61478;BME280;47345;52.334;10.392;2023-11-21T02:28:04;100268.85;;;8.68;91.59
61478;BME280;47345;52.334;10.392;2023-11-21T02:31:14;100274.77;;;8.68;91.64
61478;BME280;47345;52.334;10.392;2023-11-21T02:34:26;100275.95;;;8.68;91.65
61478;BME280;47345;52.334;10.392;2023-11-21T02:37:14;100275.33;;;8.68;91.57
61478;BME280;47345;52.334;10.392;2023-11-21T02:39:55;100273.26;;;8.68;91.70
61478;BME280;47345;52.334;10.392;2023-11-21T02:42:52;100276.24;;;8.69;91.59
61478;BME280;47345;52.334;10.392;2023-11-21T02:45:43;100276.11;;;8.68;91.55
61478;BME280;47345;52.334;10.392;2023-11-21T02:48:43;100280.39;;;8.68;91.95
61478;BME280;47345;52.334;10.392;2023-11-21T02:51:38;100285.98;;;8.71;91.98
61478;BME280;47345;52.334;10.392;2023-11-21T02:54:23;100287.58;;;8.73;91.98
61478;BME280;47345;52.334;10.392;2023-11-21T02:57:11;100286.45;;;8.73;91.58
61478;BME280;47345;52.334;10.392;2023-11-21T03:00:29;100283.92;;;8.76;91.79
61478;BME280;47345;52.334;10.392;2023-11-21T03:03:39;100286.04;;;8.76;91.81
61478;BME280;47345;52.334;10.392;2023-11-21T03:06:23;100292.08;;;8.79;92.02
61478;BME280;47345;52.334;10.392;2023-11-21T03:09:07;100291.41;;;8.79;91.71
61478;BME280;47345;52.334;10.392;2023-11-21T03:12:02;100295.19;;;8.80;91.50
61478;BME280;47345;52.334;10.392;2023-11-21T03:14:44;100297.88;;;8.79;91.55
61478;BME280;47345;52.334;10.392;2023-11-21T03:17:33;100303.71;;;8.78;91.61
61478;BME280;47345;52.334;10.392;2023-11-21T03:20:12;100300.98;;;8.78;91.73
61478;BME280;47345;52.334;10.392;2023-11-21T03:23:09;100304.59;;;8.80;91.92
61478;BME280;47345;52.334;10.392;2023-11-21T03:25:48;100303.45;;;8.82;91.82
61478;BME280;47345;52.334;10.392;2023-11-21T03:28:27;100302.38;;;8.83;91.69
61478;BME280;47345;52.334;10.392;2023-11-21T03:31:14;100304.64;;;8.84;91.89
61478;BME280;47345;52.334;10.392;2023-11-21T03:34:09;100312.11;;;8.85;92.00
61478;BME280;47345;52.334;10.392;2023-11-21T03:37:00;100319.91;;;8.87;91.82
61478;BME280;47345;52.334;10.392;2023-11-21T03:39:38;100326.16;;;8.88;91.72
61478;BME280;47345;52.334;10.392;2023-11-21T03:42:13;100330.16;;;8.89;91.82
61478;BME280;47345;52.334;10.392;2023-11-21T03:44:52;100332.44;;;8.90;91.67
61478;BME280;47345;52.334;10.392;2023-11-21T03:47:28;100332.43;;;8.91;91.90
61478;BME280;47345;52.334;10.392;2023-11-21T03:50:19;100333.83;;;8.92;91.87
61478;BME280;47345;52.334;10.392;2023-11-21T03:52:56;100337.27;;;8.93;91.55
61478;BME280;47345;52.334;10.392;2023-11-21T03:55:44;100337.09;;;8.91;91.78
61478;BME280;47345;52.334;10.392;2023-11-21T03:58:29;100335.09;;;8.94;91.80
61478;BME280;47345;52.334;10.392;2023-11-21T04:01:06;100339.33;;;8.95;91.69
61478;BME280;47345;52.334;10.392;2023-11-21T04:03:51;100337.73;;;8.95;91.38
61478;BME280;47345;52.334;10.392;2023-11-21T04:07:02;100342.35;;;8.94;91.62
61478;BME280;47345;52.334;10.392;2023-11-21T04:09:37;100343.27;;;8.94;91.53
61478;BME280;47345;52.334;10.392;2023-11-21T04:12:15;100343.02;;;8.95;91.73
61478;BME280;47345;52.334;10.392;2023-11-21T04:18:06;100340.34;;;8.94;91.78
61478;BME280;47345;52.334;10.392;2023-11-21T04:20:59;100344.08;;;8.96;91.85
61478;BME280;47345;52.334;10.392;2023-11-21T04:23:58;100350.96;;;8.98;91.89
61478;BME280;47345;52.334;10.392;2023-11-21T04:26:55;100352.69;;;9.00;91.91
61478;BME280;47345;52.334;10.392;2023-11-21T04:29:53;100362.17;;;9.03;91.79
61478;BME280;47345;52.334;10.392;2023-11-21T04:32:35;100361.50;;;9.05;91.91
61478;BME280;47345;52.334;10.392;2023-11-21T04:35:41;100364.36;;;9.07;91.83
61478;BME280;47345;52.334;10.392;2023-11-21T04:38:34;100364.06;;;9.07;91.89
61478;BME280;47345;52.334;10.392;2023-11-21T04:41:18;100369.94;;;9.07;91.71
61478;BME280;47345;52.334;10.392;2023-11-21T04:44:15;100372.28;;;9.05;91.78
61478;BME280;47345;52.334;10.392;2023-11-21T04:46:52;100379.01;;;9.01;91.69
61478;BME280;47345;52.334;10.392;2023-11-21T04:49:30;100385.13;;;8.97;91.93
61478;BME280;47345;52.334;10.392;2023-11-21T04:52:09;100390.06;;;8.94;92.12
61478;BME280;47345;52.334;10.392;2023-11-21T04:54:41;100395.59;;;8.91;92.30
61478;BME280;47345;52.334;10.392;2023-11-21T04:57:12;100403.48;;;8.89;92.49
61478;BME280;47345;52.334;10.392;2023-11-21T04:59:43;100408.00;;;8.86;92.68
61478;BME280;47345;52.334;10.392;2023-11-21T05:02:14;100407.11;;;8.83;92.90
61478;BME280;47345;52.334;10.392;2023-11-21T05:05:04;100410.55;;;8.83;93.42
61478;BME280;47345;52.334;10.392;2023-11-21T05:07:37;100411.35;;;8.85;93.76
61478;BME280;47345;52.334;10.392;2023-11-21T05:10:09;100415.80;;;8.85;93.53
61478;BME280;47345;52.334;10.392;2023-11-21T05:12:42;100413.35;;;8.81;93.50
61478;BME280;47345;52.334;10.392;2023-11-21T05:15:15;100420.98;;;8.79;93.76
61478;BME280;47345;52.334;10.392;2023-11-21T05:17:46;100424.62;;;8.76;93.90
61478;BME280;47345;52.334;10.392;2023-11-21T05:20:19;100431.94;;;8.73;94.25
61478;BME280;47345;52.334;10.392;2023-11-21T05:22:51;100435.36;;;8.69;94.28
61478;BME280;47345;52.334;10.392;2023-11-21T05:25:21;100435.98;;;8.68;94.87
61478;BME280;47345;52.334;10.392;2023-11-21T05:27:52;100435.65;;;8.68;95.03
61478;BME280;47345;52.334;10.392;2023-11-21T05:30:23;100438.75;;;8.65;94.74
61478;BME280;47345;52.334;10.392;2023-11-21T05:32:54;100442.41;;;8.61;94.76
61478;BME280;47345;52.334;10.392;2023-11-21T05:35:24;100445.95;;;8.56;94.84
61478;BME280;47345;52.334;10.392;2023-11-21T05:37:56;100446.93;;;8.51;94.83
61478;BME280;47345;52.334;10.392;2023-11-21T05:40:26;100445.33;;;8.46;95.26
61478;BME280;47345;52.334;10.392;2023-11-21T05:42:59;100444.61;;;8.45;95.69
61478;BME280;47345;52.334;10.392;2023-11-21T05:45:29;100449.52;;;8.46;96.14
61478;BME280;47345;52.334;10.392;2023-11-21T05:48:00;100455.23;;;8.46;95.91
61478;BME280;47345;52.334;10.392;2023-11-21T05:50:32;100457.02;;;8.43;95.82
61478;BME280;47345;52.334;10.392;2023-11-21T05:53:02;100459.42;;;8.40;96.12
61478;BME280;47345;52.334;10.392;2023-11-21T05:55:33;100465.19;;;8.36;96.62
61478;BME280;47345;52.334;10.392;2023-11-21T05:58:03;100470.06;;;8.31;96.92
61478;BME280;47345;52.334;10.392;2023-11-21T06:00:34;100476.39;;;8.26;97.70
61478;BME280;47345;52.334;10.392;2023-11-21T06:03:05;100482.94;;;8.22;98.27
61478;BME280;47345;52.334;10.392;2023-11-21T06:05:37;100481.21;;;8.16;98.33
61478;BME280;47345;52.334;10.392;2023-11-21T06:08:08;100485.21;;;8.11;98.44
61478;BME280;47345;52.334;10.392;2023-11-21T06:10:39;100488.89;;;8.07;98.09
61478;BME280;47345;52.334;10.392;2023-11-21T06:13:10;100493.59;;;8.01;97.74
61478;BME280;47345;52.334;10.392;2023-11-21T06:15:41;100501.02;;;7.97;97.52
61478;BME280;47345;52.334;10.392;2023-11-21T06:18:11;100500.83;;;7.93;97.31
61478;BME280;47345;52.334;10.392;2023-11-21T06:20:44;100506.00;;;7.88;97.12
61478;BME280;47345;52.334;10.392;2023-11-21T06:23:14;100510.48;;;7.81;96.90
61478;BME280;47345;52.334;10.392;2023-11-21T06:25:45;100515.99;;;7.72;96.46
61478;BME280;47345;52.334;10.392;2023-11-21T06:28:16;100522.48;;;7.64;96.40
61478;BME280;47345;52.334;10.392;2023-11-21T06:30:48;100532.09;;;7.56;96.63
61478;BME280;47345;52.334;10.392;2023-11-21T06:33:20;100534.11;;;7.50;96.61
61478;BME280;47345;52.334;10.392;2023-11-21T06:35:51;100538.62;;;7.46;96.57
61478;BME280;47345;52.334;10.392;2023-11-21T06:38:22;100541.69;;;7.44;96.74
61478;BME280;47345;52.334;10.392;2023-11-21T06:40:52;100547.21;;;7.41;96.77
61478;BME280;47345;52.334;10.392;2023-11-21T06:43:24;100548.79;;;7.37;96.46
61478;BME280;47345;52.334;10.392;2023-11-21T06:45:56;100558.08;;;7.33;96.46
61478;BME280;47345;52.334;10.392;2023-11-21T06:48:27;100558.83;;;7.28;96.28
61478;BME280;47345;52.334;10.392;2023-11-21T06:50:59;100568.80;;;7.23;96.39
61478;BME280;47345;52.334;10.392;2023-11-21T06:53:30;100569.52;;;7.18;96.17
61478;BME280;47345;52.334;10.392;2023-11-21T06:56:03;100575.13;;;7.15;96.37
61478;BME280;47345;52.334;10.392;2023-11-21T06:58:33;100582.41;;;7.11;96.68
61478;BME280;47345;52.334;10.392;2023-11-21T07:01:05;100584.48;;;7.09;96.77
61478;BME280;47345;52.334;10.392;2023-11-21T07:03:36;100590.96;;;7.07;96.68
61478;BME280;47345;52.334;10.392;2023-11-21T07:06:08;100596.06;;;7.03;96.57
61478;BME280;47345;52.334;10.392;2023-11-21T07:08:39;100597.09;;;6.99;96.75
61478;BME280;47345;52.334;10.392;2023-11-21T07:11:09;100597.36;;;6.98;96.66
61478;BME280;47345;52.334;10.392;2023-11-21T07:13:40;100603.02;;;6.96;96.75
61478;BME280;47345;52.334;10.392;2023-11-21T07:16:11;100609.70;;;6.94;96.54
61478;BME280;47345;52.334;10.392;2023-11-21T07:18:42;100614.03;;;6.90;96.11
61478;BME280;47345;52.334;10.392;2023-11-21T07:21:12;100618.83;;;6.88;96.45
61478;BME280;47345;52.334;10.392;2023-11-21T07:23:44;100624.15;;;6.90;96.60
61478;BME280;47345;52.334;10.392;2023-11-21T07:26:15;100623.73;;;6.92;96.61
61478;BME280;47345;52.334;10.392;2023-11-21T07:28:46;100625.10;;;6.93;96.39
61478;BME280;47345;52.334;10.392;2023-11-21T07:31:17;100629.58;;;6.93;96.36
61478;BME280;47345;52.334;10.392;2023-11-21T07:33:52;100634.84;;;6.94;96.49
61478;BME280;47345;52.334;10.392;2023-11-21T07:36:23;100637.95;;;6.96;96.36
61478;BME280;47345;52.334;10.392;2023-11-21T07:38:53;100643.62;;;6.97;96.34
61478;BME280;47345;52.334;10.392;2023-11-21T07:41:24;100655.13;;;6.99;96.56
61478;BME280;47345;52.334;10.392;2023-11-21T07:44:00;100658.71;;;7.01;96.51
61478;BME280;47345;52.334;10.392;2023-11-21T07:46:31;100662.58;;;7.02;96.42
61478;BME280;47345;52.334;10.392;2023-11-21T07:49:02;100665.30;;;7.05;96.38
61478;BME280;47345;52.334;10.392;2023-11-21T07:51:33;100668.23;;;7.05;96.24
61478;BME280;47345;52.334;10.392;2023-11-21T07:54:04;100672.01;;;7.03;96.10
61478;BME280;47345;52.334;10.392;2023-11-21T07:56:35;100674.05;;;7.03;96.25
61478;BME280;47345;52.334;10.392;2023-11-21T07:59:06;100684.08;;;7.01;96.00
61478;BME280;47345;52.334;10.392;2023-11-21T08:01:37;100686.67;;;7.00;95.73
61478;BME280;47345;52.334;10.392;2023-11-21T08:04:10;100696.89;;;6.97;95.52
61478;BME280;47345;52.334;10.392;2023-11-21T08:06:41;100698.59;;;6.94;95.28
61478;BME280;47345;52.334;10.392;2023-11-21T08:09:12;100706.27;;;6.90;95.33
61478;BME280;47345;52.334;10.392;2023-11-21T08:11:42;100711.30;;;6.90;95.48
61478;BME280;47345;52.334;10.392;2023-11-21T08:14:13;100715.41;;;6.91;95.94
61478;BME280;47345;52.334;10.392;2023-11-21T08:16:44;100717.02;;;6.93;96.02
61478;BME280;47345;52.334;10.392;2023-11-21T08:19:15;100724.08;;;6.94;95.56
61478;BME280;47345;52.334;10.392;2023-11-21T08:21:46;100723.27;;;6.93;95.20
61478;BME280;47345;52.334;10.392;2023-11-21T08:24:16;100723.50;;;6.95;95.11
61478;BME280;47345;52.334;10.392;2023-11-21T08:26:47;100726.02;;;6.98;94.61
61478;BME280;47345;52.334;10.392;2023-11-21T08:29:18;100730.08;;;7.00;93.75
61478;BME280;47345;52.334;10.392;2023-11-21T08:31:49;100735.91;;;7.03;93.35
61478;BME280;47345;52.334;10.392;2023-11-21T08:34:20;100736.92;;;7.08;92.56
61478;BME280;47345;52.334;10.392;2023-11-21T08:36:51;100737.43;;;7.15;92.53
61478;BME280;47345;52.334;10.392;2023-11-21T08:39:22;100742.23;;;7.25;92.35
61478;BME280;47345;52.334;10.392;2023-11-21T08:41:53;100742.98;;;7.32;91.53
61478;BME280;47345;52.334;10.392;2023-11-21T08:44:24;100749.00;;;7.41;91.50
61478;BME280;47345;52.334;10.392;2023-11-21T08:46:55;100750.63;;;7.51;91.10
61478;BME280;47345;52.334;10.392;2023-11-21T08:49:25;100754.94;;;7.59;91.03
61478;BME280;47345;52.334;10.392;2023-11-21T08:51:57;100758.55;;;7.65;90.40
61478;BME280;47345;52.334;10.392;2023-11-21T08:54:28;100760.92;;;7.69;89.59
61478;BME280;47345;52.334;10.392;2023-11-21T08:57:00;100762.77;;;7.74;89.42
61478;BME280;47345;52.334;10.392;2023-11-21T08:59:31;100762.54;;;7.82;89.02
61478;BME280;47345;52.334;10.392;2023-11-21T09:02:02;100768.19;;;7.88;88.00
61478;BME280;47345;52.334;10.392;2023-11-21T09:04:33;100768.61;;;7.95;88.03
61478;BME280;47345;52.334;10.392;2023-11-21T09:07:04;100770.73;;;8.00;86.73
61478;BME280;47345;52.334;10.392;2023-11-21T09:09:35;100777.83;;;8.04;85.39
61478;BME280;47345;52.334;10.392;2023-11-21T09:12:07;100777.85;;;8.10;84.69
61478;BME280;47345;52.334;10.392;2023-11-21T09:14:41;100780.34;;;8.18;84.75
61478;BME280;47345;52.334;10.392;2023-11-21T09:17:13;100781.61;;;8.25;84.47
61478;BME280;47345;52.334;10.392;2023-11-21T09:19:44;100785.16;;;8.27;83.63
61478;BME280;47345;52.334;10.392;2023-11-21T09:22:19;100792.10;;;8.25;83.02
61478;BME280;47345;52.334;10.392;2023-11-21T09:24:50;100794.73;;;8.22;82.33
61478;BME280;47345;52.334;10.392;2023-11-21T09:27:21;100794.98;;;8.16;82.63
61478;BME280;47345;52.334;10.392;2023-11-21T09:29:52;100797.10;;;8.11;82.53
61478;BME280;47345;52.334;10.392;2023-11-21T09:32:23;100804.48;;;8.10;81.48
61478;BME280;47345;52.334;10.392;2023-11-21T09:34:54;100807.54;;;8.11;82.17
61478;BME280;47345;52.334;10.392;2023-11-21T09:37:28;100809.86;;;8.18;82.40
61478;BME280;47345;52.334;10.392;2023-11-21T09:39:58;100816.86;;;8.28;82.22
61478;BME280;47345;52.334;10.392;2023-11-21T09:42:31;100821.05;;;8.34;82.19
61478;BME280;47345;52.334;10.392;2023-11-21T09:45:12;100824.54;;;8.35;82.21
61478;BME280;47345;52.334;10.392;2023-11-21T09:47:47;100836.41;;;8.39;82.35
61478;BME280;47345;52.334;10.392;2023-11-21T09:50:19;100840.19;;;8.42;81.03
61478;BME280;47345;52.334;10.392;2023-11-21T09:52:57;100846.36;;;8.49;80.70
61478;BME280;47345;52.334;10.392;2023-11-21T09:55:30;100847.84;;;8.53;79.32
61478;BME280;47345;52.334;10.392;2023-11-21T09:58:06;100851.23;;;8.52;79.13
61478;BME280;47345;52.334;10.392;2023-11-21T10:00:37;100855.50;;;8.54;78.57
61478;BME280;47345;52.334;10.392;2023-11-21T10:03:10;100860.20;;;8.55;78.73
61478;BME280;47345;52.334;10.392;2023-11-21T10:05:42;100861.91;;;8.61;79.26
61478;BME280;47345;52.334;10.392;2023-11-21T10:08:14;100865.27;;;8.65;78.97
61478;BME280;47345;52.334;10.392;2023-11-21T10:10:46;100868.90;;;8.66;79.31
61478;BME280;47345;52.334;10.392;2023-11-21T10:13:20;100871.56;;;8.58;78.28
61478;BME280;47345;52.334;10.392;2023-11-21T10:15:51;100871.08;;;8.50;79.45
61478;BME280;47345;52.334;10.392;2023-11-21T10:18:23;100876.14;;;8.49;80.31
61478;BME280;47345;52.334;10.392;2023-11-21T10:20:56;100883.44;;;8.49;79.60
61478;BME280;47345;52.334;10.392;2023-11-21T10:23:29;100884.38;;;8.50;79.68
61478;BME280;47345;52.334;10.392;2023-11-21T10:26:00;100880.86;;;8.44;79.05
61478;BME280;47345;52.334;10.392;2023-11-21T10:28:43;100883.54;;;8.45;79.30
61478;BME280;47345;52.334;10.392;2023-11-21T10:31:25;100896.81;;;8.51;78.66
61478;BME280;47345;52.334;10.392;2023-11-21T10:33:59;100895.30;;;8.54;78.66
61478;BME280;47345;52.334;10.392;2023-11-21T10:36:40;100898.50;;;8.58;77.66
61478;BME280;47345;52.334;10.392;2023-11-21T10:39:11;100902.02;;;8.59;77.30
61478;BME280;47345;52.334;10.392;2023-11-21T10:41:47;100901.39;;;8.61;77.15
61478;BME280;47345;52.334;10.392;2023-11-21T10:44:19;100902.79;;;8.66;77.23
61478;BME280;47345;52.334;10.392;2023-11-21T10:46:52;100905.77;;;8.76;78.29
61478;BME280;47345;52.334;10.392;2023-11-21T10:49:26;100907.75;;;8.87;77.33
61478;BME280;47345;52.334;10.392;2023-11-21T10:51:57;100914.30;;;8.94;77.05
61478;BME280;47345;52.334;10.392;2023-11-21T10:54:28;100913.38;;;8.98;76.34
61478;BME280;47345;52.334;10.392;2023-11-21T10:57:00;100906.80;;;8.98;75.97
61478;BME280;47345;52.334;10.392;2023-11-21T10:59:31;100910.77;;;8.98;76.36
61478;BME280;47345;52.334;10.392;2023-11-21T11:02:05;100919.40;;;8.89;76.13
61478;BME280;47345;52.334;10.392;2023-11-21T11:04:43;100923.54;;;8.77;76.71
61478;BME280;47345;52.334;10.392;2023-11-21T11:07:16;100924.27;;;8.75;77.35
61478;BME280;47345;52.334;10.392;2023-11-21T11:09:47;100926.05;;;8.79;77.90
61478;BME280;47345;52.334;10.392;2023-11-21T11:12:18;100930.73;;;8.85;77.99
61478;BME280;47345;52.334;10.392;2023-11-21T11:14:49;100935.41;;;8.87;77.68
61478;BME280;47345;52.334;10.392;2023-11-21T11:17:21;100938.77;;;8.88;77.38
61478;BME280;47345;52.334;10.392;2023-11-21T11:19:53;100941.76;;;8.77;76.67
61478;BME280;47345;52.334;10.392;2023-11-21T11:22:32;100944.31;;;8.68;77.52
61478;BME280;47345;52.334;10.392;2023-11-21T11:25:21;100941.89;;;8.68;77.64
61478;BME280;47345;52.334;10.392;2023-11-21T11:28:07;100944.46;;;8.67;77.77
61478;BME280;47345;52.334;10.392;2023-11-21T11:30:44;100945.77;;;8.67;77.62
61478;BME280;47345;52.334;10.392;2023-11-21T11:33:23;100943.95;;;8.71;77.20
61478;BME280;47345;52.334;10.392;2023-11-21T11:36:09;100946.60;;;8.76;77.17
61478;BME280;47345;52.334;10.392;2023-11-21T11:38:46;100951.10;;;8.80;77.57
61478;BME280;47345;52.334;10.392;2023-11-21T11:41:27;100952.45;;;8.82;77.44
61478;BME280;47345;52.334;10.392;2023-11-21T11:43:59;100956.47;;;8.80;76.32
61478;BME280;47345;52.334;10.392;2023-11-21T11:46:43;100960.78;;;8.82;76.67
61478;BME280;47345;52.334;10.392;2023-11-21T11:49:26;100962.90;;;8.81;76.27
61478;BME280;47345;52.334;10.392;2023-11-21T11:52:33;100957.94;;;8.80;75.89
61478;BME280;47345;52.334;10.392;2023-11-21T11:55:06;100965.11;;;8.79;75.34
61478;BME280;47345;52.334;10.392;2023-11-21T11:57:40;100974.08;;;8.71;75.90
61478;BME280;47345;52.334;10.392;2023-11-21T12:00:21;100977.77;;;8.74;76.41
61478;BME280;47345;52.334;10.392;2023-11-21T12:02:56;100976.35;;;8.78;76.30
61478;BME280;47345;52.334;10.392;2023-11-21T12:05:28;100978.14;;;8.80;75.86
61478;BME280;47345;52.334;10.392;2023-11-21T12:08:03;100981.30;;;8.81;76.43
61478;BME280;47345;52.334;10.392;2023-11-21T12:10:35;100983.66;;;8.82;75.72
61478;BME280;47345;52.334;10.392;2023-11-21T12:13:09;100991.08;;;8.75;74.31
61478;BME280;47345;52.334;10.392;2023-11-21T12:15:41;100990.23;;;8.72;74.99
61478;BME280;47345;52.334;10.392;2023-11-21T12:18:12;100990.78;;;8.72;75.26
61478;BME280;47345;52.334;10.392;2023-11-21T12:20:43;100986.78;;;8.78;75.58
61478;BME280;47345;52.334;10.392;2023-11-21T12:23:16;100988.97;;;8.78;73.69
61478;BME280;47345;52.334;10.392;2023-11-21T12:25:47;100994.01;;;8.75;74.70
61478;BME280;47345;52.334;10.392;2023-11-21T12:28:18;101000.85;;;8.81;75.48
61478;BME280;47345;52.334;10.392;2023-11-21T12:30:48;101008.02;;;8.93;75.26
61478;BME280;47345;52.334;10.392;2023-11-21T12:33:20;101010.26;;;9.02;75.27
61478;BME280;47345;52.334;10.392;2023-11-21T12:35:51;101015.61;;;9.01;74.00
61478;BME280;47345;52.334;10.392;2023-11-21T12:38:23;101021.36;;;8.92;73.79
61478;BME280;47345;52.334;10.392;2023-11-21T12:40:54;101021.85;;;8.85;73.76
61478;BME280;47345;52.334;10.392;2023-11-21T12:43:26;101025.52;;;8.78;74.44
61478;BME280;47345;52.334;10.392;2023-11-21T12:46:07;101028.23;;;8.71;75.15
61478;BME280;47345;52.334;10.392;2023-11-21T12:48:39;101027.71;;;8.64;74.84
61478;BME280;47345;52.334;10.392;2023-11-21T12:51:13;101034.11;;;8.58;74.97
61478;BME280;47345;52.334;10.392;2023-11-21T12:53:45;101028.58;;;8.57;75.44
61478;BME280;47345;52.334;10.392;2023-11-21T12:56:16;101029.35;;;8.58;75.37
61478;BME280;47345;52.334;10.392;2023-11-21T12:58:47;101037.75;;;8.56;75.43
61478;BME280;47345;52.334;10.392;2023-11-21T13:01:20;101041.48;;;8.54;75.52
61478;BME280;47345;52.334;10.392;2023-11-21T13:03:52;101045.45;;;8.53;74.76
61478;BME280;47345;52.334;10.392;2023-11-21T13:06:23;101052.35;;;8.51;74.81
61478;BME280;47345;52.334;10.392;2023-11-21T13:08:55;101052.84;;;8.41;73.99
61478;BME280;47345;52.334;10.392;2023-11-21T13:11:26;101057.15;;;8.32;74.32
61478;BME280;47345;52.334;10.392;2023-11-21T13:14:01;101064.46;;;8.30;74.52
61478;BME280;47345;52.334;10.392;2023-11-21T13:16:33;101067.20;;;8.28;73.94
61478;BME280;47345;52.334;10.392;2023-11-21T13:19:04;101067.17;;;8.24;74.22
61478;BME280;47345;52.334;10.392;2023-11-21T13:21:34;101067.83;;;8.19;74.63
61478;BME280;47345;52.334;10.392;2023-11-21T13:24:06;101063.62;;;8.12;74.93
61478;BME280;47345;52.334;10.392;2023-11-21T13:26:39;101067.61;;;8.11;74.60
61478;BME280;47345;52.334;10.392;2023-11-21T13:29:10;101069.98;;;8.09;74.48
61478;BME280;47345;52.334;10.392;2023-11-21T13:31:42;101073.29;;;8.05;73.96
61478;BME280;47345;52.334;10.392;2023-11-21T13:34:13;101074.16;;;7.94;73.86
61478;BME280;47345;52.334;10.392;2023-11-21T13:36:49;101075.67;;;7.83;74.47
61478;BME280;47345;52.334;10.392;2023-11-21T13:39:27;101083.61;;;7.77;74.90
61478;BME280;47345;52.334;10.392;2023-11-21T13:41:58;101089.34;;;7.70;73.88
61478;BME280;47345;52.334;10.392;2023-11-21T13:44:29;101091.28;;;7.64;74.73
61478;BME280;47345;52.334;10.392;2023-11-21T13:47:07;101091.01;;;7.58;74.70